sensor_id;sensor_type;location;lat;lon;timestamp;temperature;humidity
30648;DHT22;17683;53.360;9.736;2023-03-04T00:01:14;5.50;99.90
30648;DHT22;17683;53.360;9.736;2023-03-04T00:03:41;5.50;99.90
30648;DHT22;17683;53.360;9.736;2023-03-04T00:06:08;5.50;99.90
30648;DHT22;17683;53.360;9.736;2023-03-04T00:08:34;5.50;99.90
30648;DHT22;17683;53.360;9.736;2023-03-04T00:11:00;5.50;99.90
30648;DHT22;17683;53.360;9.736;2023-03-04T00:13:26;5.50;99.90
30648;DHT22;17683;53.360;9.736;2023-03-04T00:15:52;5.50;99.90
30648;DHT22;17683;53.360;9.736;2023-03-04T00:18:18;5.50;99.90
30648;DHT22;17683;53.360;9.736;2023-03-04T00:20:47;5.60;99.90
30648;DHT22;17683;53.360;9.736;2023-03-04T00:23:14;5.50;99.90
30648;DHT22;17683;53.360;9.736;2023-03-04T00:25:40;5.50;99.90
30648;DHT22;17683;53.360;9.736;2023-03-04T00:28:05;5.60;99.90
30648;DHT22;17683;53.360;9.736;2023-03-04T00:30:31;5.60;99.90
30648;DHT22;17683;53.360;9.736;2023-03-04T00:32:57;5.60;99.90
30648;DHT22;17683;53.360;9.736;2023-03-04T00:35:23;5.60;99.90
30648;DHT22;17683;53.360;9.736;2023-03-04T00:37:48;5.60;99.90
30648;DHT22;17683;53.360;9.736;2023-03-04T00:40:14;5.60;99.90
30648;DHT22;17683;53.360;9.736;2023-03-04T00:42:40;5.60;99.90
30648;DHT22;17683;53.360;9.736;2023-03-04T00:45:06;5.60;99.90
30648;DHT22;17683;53.360;9.736;2023-03-04T00:47:32;5.60;99.90
30648;DHT22;17683;53.360;9.736;2023-03-04T00:49:58;5.60;99.90
30648;DHT22;17683;53.360;9.736;2023-03-04T00:52:24;5.60;99.90
30648;DHT22;17683;53.360;9.736;2023-03-04T00:54:49;5.60;99.90
30648;DHT22;17683;53.360;9.736;2023-03-04T00:57:15;5.60;99.90
30648;DHT22;17683;53.360;9.736;2023-03-04T00:59:41;5.60;99.90
30648;DHT22;17683;53.360;9.736;2023-03-04T01:02:08;5.60;99.90
30648;DHT22;17683;53.360;9.736;2023-03-04T01:04:35;5.70;99.90
30648;DHT22;17683;53.360;9.736;2023-03-04T01:07:01;5.60;99.90
30648;DHT22;17683;53.360;9.736;2023-03-04T01:09:27;5.60;99.90
30648;DHT22;17683;53.360;9.736;2023-03-04T01:11:52;5.60;99.90
30648;DHT22;17683;53.360;9.736;2023-03-04T01:14:18;5.60;99.90
30648;DHT22;17683;53.360;9.736;2023-03-04T01:16:44;5.60;99.90
30648;DHT22;17683;53.360;9.736;2023-03-04T01:19:10;5.60;99.90
30648;DHT22;17683;53.360;9.736;2023-03-04T01:21:36;5.60;99.90
30648;DHT22;17683;53.360;9.736;2023-03-04T01:24:02;5.70;99.90
30648;DHT22;17683;53.360;9.736;2023-03-04T01:26:28;5.60;99.90
30648;DHT22;17683;53.360;9.736;2023-03-04T01:28:54;5.60;99.90
30648;DHT22;17683;53.360;9.736;2023-03-04T01:31:20;5.70;99.90
30648;DHT22;17683;53.360;9.736;2023-03-04T01:33:46;5.60;99.90
30648;DHT22;17683;53.360;9.736;2023-03-04T01:36:11;5.60;99.90
30648;DHT22;17683;53.360;9.736;2023-03-04T01:38:37;5.60;99.90
30648;DHT22;17683;53.360;9.736;2023-03-04T01:41:03;5.60;99.90
30648;DHT22;17683;53.360;9.736;2023-03-04T01:43:30;5.60;99.90
30648;DHT22;17683;53.360;9.736;2023-03-04T01:45:57;5.60;99.90
30648;DHT22;17683;53.360;9.736;2023-03-04T01:48:34;5.60;99.90
30648;DHT22;17683;53.360;9.736;2023-03-04T01:51:02;5.60;99.90
30648;DHT22;17683;53.360;9.736;2023-03-04T01:53:29;5.50;99.90
30648;DHT22;17683;53.360;9.736;2023-03-04T01:55:59;5.60;99.90
30648;DHT22;17683;53.360;9.736;2023-03-04T01:58:28;5.60;99.90
30648;DHT22;17683;53.360;9.736;2023-03-04T02:00:56;5.50;99.90
30648;DHT22;17683;53.360;9.736;2023-03-04T02:03:22;5.60;99.90
30648;DHT22;17683;53.360;9.736;2023-03-04T02:05:50;5.60;99.90
30648;DHT22;17683;53.360;9.736;2023-03-04T02:08:18;5.50;99.90
30648;DHT22;17683;53.360;9.736;2023-03-04T02:10:45;5.60;99.90
30648;DHT22;17683;53.360;9.736;2023-03-04T02:13:11;5.50;99.90
30648;DHT22;17683;53.360;9.736;2023-03-04T02:15:38;5.50;99.90
30648;DHT22;17683;53.360;9.736;2023-03-04T02:18:15;5.50;99.90
30648;DHT22;17683;53.360;9.736;2023-03-04T02:26:41;5.50;99.90
30648;DHT22;17683;53.360;9.736;2023-03-04T02:29:13;5.50;99.90
30648;DHT22;17683;53.360;9.736;2023-03-04T02:31:47;5.50;99.90
30648;DHT22;17683;53.360;9.736;2023-03-04T02:34:20;5.50;99.90
30648;DHT22;17683;53.360;9.736;2023-03-04T02:36:47;5.50;99.90
30648;DHT22;17683;53.360;9.736;2023-03-04T02:39:44;5.50;99.90
30648;DHT22;17683;53.360;9.736;2023-03-04T02:42:10;5.50;99.90
30648;DHT22;17683;53.360;9.736;2023-03-04T02:44:39;5.50;99.90
30648;DHT22;17683;53.360;9.736;2023-03-04T02:47:08;5.50;99.90
30648;DHT22;17683;53.360;9.736;2023-03-04T02:49:35;5.60;99.90
30648;DHT22;17683;53.360;9.736;2023-03-04T02:54:32;5.50;99.90
30648;DHT22;17683;53.360;9.736;2023-03-04T02:57:01;5.50;99.90
30648;DHT22;17683;53.360;9.736;2023-03-04T02:59:27;5.60;99.90
30648;DHT22;17683;53.360;9.736;2023-03-04T03:01:53;5.60;99.90
30648;DHT22;17683;53.360;9.736;2023-03-04T03:04:19;5.50;99.90
30648;DHT22;17683;53.360;9.736;2023-03-04T03:06:46;5.60;99.90
30648;DHT22;17683;53.360;9.736;2023-03-04T03:09:12;5.60;99.90
30648;DHT22;17683;53.360;9.736;2023-03-04T03:11:37;5.60;99.90
30648;DHT22;17683;53.360;9.736;2023-03-04T03:14:04;5.60;99.90
30648;DHT22;17683;53.360;9.736;2023-03-04T03:16:30;5.60;99.90
30648;DHT22;17683;53.360;9.736;2023-03-04T03:18:55;5.60;99.90
30648;DHT22;17683;53.360;9.736;2023-03-04T03:21:21;5.60;99.90
30648;DHT22;17683;53.360;9.736;2023-03-04T03:23:48;5.70;99.90
30648;DHT22;17683;53.360;9.736;2023-03-04T03:26:14;5.60;99.90
30648;DHT22;17683;53.360;9.736;2023-03-04T03:28:39;5.60;99.90
30648;DHT22;17683;53.360;9.736;2023-03-04T03:31:05;5.70;99.90
30648;DHT22;17683;53.360;9.736;2023-03-04T03:33:31;5.60;99.90
30648;DHT22;17683;53.360;9.736;2023-03-04T03:35:57;5.70;99.90
30648;DHT22;17683;53.360;9.736;2023-03-04T03:38:23;5.70;99.90
30648;DHT22;17683;53.360;9.736;2023-03-04T03:40:48;5.70;99.90
30648;DHT22;17683;53.360;9.736;2023-03-04T03:43:14;5.70;99.90
30648;DHT22;17683;53.360;9.736;2023-03-04T03:45:40;5.60;99.90
30648;DHT22;17683;53.360;9.736;2023-03-04T03:48:06;5.70;99.90
30648;DHT22;17683;53.360;9.736;2023-03-04T03:50:31;5.60;99.90
30648;DHT22;17683;53.360;9.736;2023-03-04T03:52:58;5.60;99.90
30648;DHT22;17683;53.360;9.736;2023-03-04T03:55:23;5.60;99.90
30648;DHT22;17683;53.360;9.736;2023-03-04T03:57:49;5.60;99.90
30648;DHT22;17683;53.360;9.736;2023-03-04T04:00:15;5.60;99.90
30648;DHT22;17683;53.360;9.736;2023-03-04T04:02:41;5.60;99.90
30648;DHT22;17683;53.360;9.736;2023-03-04T04:05:07;5.60;99.90
30648;DHT22;17683;53.360;9.736;2023-03-04T04:07:35;5.60;99.90
30648;DHT22;17683;53.360;9.736;2023-03-04T04:10:01;5.60;99.90
30648;DHT22;17683;53.360;9.736;2023-03-04T04:12:27;5.50;99.90
30648;DHT22;17683;53.360;9.736;2023-03-04T04:14:52;5.60;99.90
30648;DHT22;17683;53.360;9.736;2023-03-04T04:17:18;5.60;99.90
30648;DHT22;17683;53.360;9.736;2023-03-04T04:19:44;5.60;99.90
30648;DHT22;17683;53.360;9.736;2023-03-04T04:22:15;5.60;99.90
30648;DHT22;17683;53.360;9.736;2023-03-04T04:24:41;5.50;99.90
30648;DHT22;17683;53.360;9.736;2023-03-04T04:27:07;5.50;99.90
30648;DHT22;17683;53.360;9.736;2023-03-04T04:29:33;5.50;99.90
30648;DHT22;17683;53.360;9.736;2023-03-04T04:31:58;5.50;99.90
30648;DHT22;17683;53.360;9.736;2023-03-04T04:34:24;5.50;99.90
30648;DHT22;17683;53.360;9.736;2023-03-04T04:36:50;5.50;99.90
30648;DHT22;17683;53.360;9.736;2023-03-04T04:39:16;5.60;99.90
30648;DHT22;17683;53.360;9.736;2023-03-04T04:41:43;5.50;99.90
30648;DHT22;17683;53.360;9.736;2023-03-04T04:44:09;5.60;99.90
30648;DHT22;17683;53.360;9.736;2023-03-04T04:46:35;5.50;99.90
30648;DHT22;17683;53.360;9.736;2023-03-04T04:49:02;5.50;99.90
30648;DHT22;17683;53.360;9.736;2023-03-04T04:51:28;5.50;99.90
30648;DHT22;17683;53.360;9.736;2023-03-04T04:53:54;5.50;99.90
30648;DHT22;17683;53.360;9.736;2023-03-04T04:56:22;5.60;99.90
30648;DHT22;17683;53.360;9.736;2023-03-04T04:58:51;5.60;99.90
30648;DHT22;17683;53.360;9.736;2023-03-04T05:01:16;5.50;99.90
30648;DHT22;17683;53.360;9.736;2023-03-04T05:03:42;5.60;99.90
30648;DHT22;17683;53.360;9.736;2023-03-04T05:06:09;5.60;99.90
30648;DHT22;17683;53.360;9.736;2023-03-04T05:08:35;5.50;99.90
30648;DHT22;17683;53.360;9.736;2023-03-04T05:11:02;5.50;99.90
30648;DHT22;17683;53.360;9.736;2023-03-04T05:13:28;5.50;99.90
30648;DHT22;17683;53.360;9.736;2023-03-04T05:15:55;5.50;99.90
30648;DHT22;17683;53.360;9.736;2023-03-04T05:18:22;5.50;99.90
30648;DHT22;17683;53.360;9.736;2023-03-04T05:20:53;5.50;99.90
30648;DHT22;17683;53.360;9.736;2023-03-04T05:23:19;5.50;99.90
30648;DHT22;17683;53.360;9.736;2023-03-04T05:25:46;5.50;99.90
30648;DHT22;17683;53.360;9.736;2023-03-04T05:28:12;5.50;99.90
30648;DHT22;17683;53.360;9.736;2023-03-04T05:30:39;5.50;99.90
30648;DHT22;17683;53.360;9.736;2023-03-04T05:33:06;5.50;99.90
30648;DHT22;17683;53.360;9.736;2023-03-04T05:35:34;5.40;99.90
30648;DHT22;17683;53.360;9.736;2023-03-04T05:38:01;5.50;99.90
30648;DHT22;17683;53.360;9.736;2023-03-04T05:40:26;5.50;99.90
30648;DHT22;17683;53.360;9.736;2023-03-04T05:42:52;5.50;99.90
30648;DHT22;17683;53.360;9.736;2023-03-04T05:45:18;5.50;99.90
30648;DHT22;17683;53.360;9.736;2023-03-04T05:47:43;5.50;99.90
30648;DHT22;17683;53.360;9.736;2023-03-04T05:50:10;5.50;99.90
30648;DHT22;17683;53.360;9.736;2023-03-04T05:52:35;5.50;99.90
30648;DHT22;17683;53.360;9.736;2023-03-04T05:55:01;5.40;99.90
30648;DHT22;17683;53.360;9.736;2023-03-04T05:57:27;5.40;99.90
30648;DHT22;17683;53.360;9.736;2023-03-04T05:59:53;5.40;99.90
30648;DHT22;17683;53.360;9.736;2023-03-04T06:02:18;5.40;99.90
30648;DHT22;17683;53.360;9.736;2023-03-04T06:04:44;5.40;99.90
30648;DHT22;17683;53.360;9.736;2023-03-04T06:07:10;5.50;99.90
30648;DHT22;17683;53.360;9.736;2023-03-04T06:09:35;5.50;99.90
30648;DHT22;17683;53.360;9.736;2023-03-04T06:12:01;5.50;99.90
30648;DHT22;17683;53.360;9.736;2023-03-04T06:14:27;5.50;99.90
30648;DHT22;17683;53.360;9.736;2023-03-04T06:16:53;5.50;99.90
30648;DHT22;17683;53.360;9.736;2023-03-04T06:19:19;5.50;99.90
30648;DHT22;17683;53.360;9.736;2023-03-04T06:21:44;5.40;99.90
30648;DHT22;17683;53.360;9.736;2023-03-04T06:24:10;5.40;99.90
30648;DHT22;17683;53.360;9.736;2023-03-04T06:26:36;5.40;99.90
30648;DHT22;17683;53.360;9.736;2023-03-04T06:29:01;5.40;99.90
30648;DHT22;17683;53.360;9.736;2023-03-04T06:31:28;5.40;99.90
30648;DHT22;17683;53.360;9.736;2023-03-04T06:33:54;5.50;99.90
30648;DHT22;17683;53.360;9.736;2023-03-04T06:36:20;5.40;99.90
30648;DHT22;17683;53.360;9.736;2023-03-04T06:38:45;5.40;99.90
30648;DHT22;17683;53.360;9.736;2023-03-04T06:41:12;5.40;99.90
30648;DHT22;17683;53.360;9.736;2023-03-04T06:43:38;5.40;99.90
30648;DHT22;17683;53.360;9.736;2023-03-04T06:46:05;5.40;99.90
30648;DHT22;17683;53.360;9.736;2023-03-04T06:48:31;5.50;99.90
30648;DHT22;17683;53.360;9.736;2023-03-04T06:50:57;5.50;99.90
30648;DHT22;17683;53.360;9.736;2023-03-04T06:53:23;5.50;99.90
30648;DHT22;17683;53.360;9.736;2023-03-04T06:55:48;5.50;99.90
30648;DHT22;17683;53.360;9.736;2023-03-04T06:58:14;5.50;99.90
30648;DHT22;17683;53.360;9.736;2023-03-04T07:00:43;5.50;99.90
30648;DHT22;17683;53.360;9.736;2023-03-04T07:03:10;5.50;99.90
30648;DHT22;17683;53.360;9.736;2023-03-04T07:05:38;5.50;99.90
30648;DHT22;17683;53.360;9.736;2023-03-04T07:08:04;5.50;99.90
30648;DHT22;17683;53.360;9.736;2023-03-04T07:10:32;5.50;99.90
30648;DHT22;17683;53.360;9.736;2023-03-04T07:12:58;5.50;99.90
30648;DHT22;17683;53.360;9.736;2023-03-04T07:15:23;5.50;99.90
30648;DHT22;17683;53.360;9.736;2023-03-04T07:17:49;5.50;99.90
30648;DHT22;17683;53.360;9.736;2023-03-04T07:20:15;5.50;99.90
30648;DHT22;17683;53.360;9.736;2023-03-04T07:22:41;5.50;99.90
30648;DHT22;17683;53.360;9.736;2023-03-04T07:25:07;5.50;99.90
30648;DHT22;17683;53.360;9.736;2023-03-04T07:27:32;5.50;99.90
30648;DHT22;17683;53.360;9.736;2023-03-04T07:29:58;5.50;99.90
30648;DHT22;17683;53.360;9.736;2023-03-04T07:32:24;5.50;99.90
30648;DHT22;17683;53.360;9.736;2023-03-04T07:34:50;5.50;99.90
30648;DHT22;17683;53.360;9.736;2023-03-04T07:37:15;5.50;99.90
30648;DHT22;17683;53.360;9.736;2023-03-04T07:39:41;5.50;99.90
30648;DHT22;17683;53.360;9.736;2023-03-04T07:42:07;5.50;99.90
30648;DHT22;17683;53.360;9.736;2023-03-04T07:44:33;5.50;99.90
30648;DHT22;17683;53.360;9.736;2023-03-04T07:46:58;5.50;99.90
30648;DHT22;17683;53.360;9.736;2023-03-04T07:49:24;5.50;99.90
30648;DHT22;17683;53.360;9.736;2023-03-04T07:51:50;5.50;99.90
30648;DHT22;17683;53.360;9.736;2023-03-04T07:54:15;5.50;99.90
30648;DHT22;17683;53.360;9.736;2023-03-04T07:56:44;5.50;99.90
30648;DHT22;17683;53.360;9.736;2023-03-04T07:59:10;5.50;99.90
30648;DHT22;17683;53.360;9.736;2023-03-04T08:01:37;5.50;99.90
30648;DHT22;17683;53.360;9.736;2023-03-04T08:04:04;5.50;99.90
30648;DHT22;17683;53.360;9.736;2023-03-04T08:06:30;5.40;99.90
30648;DHT22;17683;53.360;9.736;2023-03-04T08:09:07;5.50;99.90
30648;DHT22;17683;53.360;9.736;2023-03-04T08:11:35;5.50;99.90
30648;DHT22;17683;53.360;9.736;2023-03-04T08:14:01;5.50;99.90
30648;DHT22;17683;53.360;9.736;2023-03-04T08:16:27;5.50;99.90
30648;DHT22;17683;53.360;9.736;2023-03-04T08:18:55;5.50;99.90
30648;DHT22;17683;53.360;9.736;2023-03-04T08:21:22;5.50;99.90
30648;DHT22;17683;53.360;9.736;2023-03-04T08:23:49;5.50;99.90
30648;DHT22;17683;53.360;9.736;2023-03-04T08:26:18;5.50;99.90
30648;DHT22;17683;53.360;9.736;2023-03-04T08:28:44;5.50;99.90
30648;DHT22;17683;53.360;9.736;2023-03-04T08:31:15;5.60;99.90
30648;DHT22;17683;53.360;9.736;2023-03-04T08:33:41;5.50;99.90
30648;DHT22;17683;53.360;9.736;2023-03-04T08:36:08;5.50;99.90
30648;DHT22;17683;53.360;9.736;2023-03-04T08:38:34;5.60;99.90
30648;DHT22;17683;53.360;9.736;2023-03-04T08:41:00;5.50;99.90
30648;DHT22;17683;53.360;9.736;2023-03-04T08:43:27;5.50;99.90
30648;DHT22;17683;53.360;9.736;2023-03-04T08:45:53;5.60;99.90
30648;DHT22;17683;53.360;9.736;2023-03-04T08:48:20;5.60;99.90
30648;DHT22;17683;53.360;9.736;2023-03-04T08:50:46;5.50;99.90
30648;DHT22;17683;53.360;9.736;2023-03-04T08:53:13;5.50;99.90
30648;DHT22;17683;53.360;9.736;2023-03-04T08:55:40;5.50;99.90
30648;DHT22;17683;53.360;9.736;2023-03-04T08:58:06;5.50;99.90
30648;DHT22;17683;53.360;9.736;2023-03-04T09:00:33;5.50;99.90
30648;DHT22;17683;53.360;9.736;2023-03-04T09:02:59;5.50;99.90
30648;DHT22;17683;53.360;9.736;2023-03-04T09:05:25;5.50;99.90
30648;DHT22;17683;53.360;9.736;2023-03-04T09:07:51;5.50;99.90
30648;DHT22;17683;53.360;9.736;2023-03-04T09:10:18;5.50;99.90
30648;DHT22;17683;53.360;9.736;2023-03-04T09:12:44;5.50;99.90
30648;DHT22;17683;53.360;9.736;2023-03-04T09:15:11;5.50;99.90
30648;DHT22;17683;53.360;9.736;2023-03-04T09:17:37;5.50;99.90
30648;DHT22;17683;53.360;9.736;2023-03-04T09:20:04;5.50;99.90
30648;DHT22;17683;53.360;9.736;2023-03-04T09:22:30;5.50;99.90
30648;DHT22;17683;53.360;9.736;2023-03-04T09:24:56;5.50;99.90
30648;DHT22;17683;53.360;9.736;2023-03-04T09:27:21;5.50;99.90
30648;DHT22;17683;53.360;9.736;2023-03-04T09:29:47;5.50;99.90
30648;DHT22;17683;53.360;9.736;2023-03-04T09:32:13;5.50;99.90
30648;DHT22;17683;53.360;9.736;2023-03-04T09:34:39;5.50;99.90
30648;DHT22;17683;53.360;9.736;2023-03-04T09:37:05;5.50;99.90
30648;DHT22;17683;53.360;9.736;2023-03-04T09:39:31;5.50;99.90
30648;DHT22;17683;53.360;9.736;2023-03-04T09:41:57;5.50;99.90
30648;DHT22;17683;53.360;9.736;2023-03-04T09:47:00;5.50;99.90
30648;DHT22;17683;53.360;9.736;2023-03-04T09:49:27;5.50;99.90
30648;DHT22;17683;53.360;9.736;2023-03-04T09:52:11;5.60;99.90
30648;DHT22;17683;53.360;9.736;2023-03-04T09:55:20;5.60;99.90
30648;DHT22;17683;53.360;9.736;2023-03-04T09:58:01;5.60;99.90
30648;DHT22;17683;53.360;9.736;2023-03-04T10:00:46;5.60;99.90
30648;DHT22;17683;53.360;9.736;2023-03-04T10:03:19;5.60;99.90
30648;DHT22;17683;53.360;9.736;2023-03-04T10:14:09;5.70;99.90
30648;DHT22;17683;53.360;9.736;2023-03-04T10:17:04;5.60;99.90
30648;DHT22;17683;53.360;9.736;2023-03-04T10:21:55;5.70;99.90
30648;DHT22;17683;53.360;9.736;2023-03-04T10:24:25;5.70;99.90
30648;DHT22;17683;53.360;9.736;2023-03-04T10:26:55;5.70;99.90
30648;DHT22;17683;53.360;9.736;2023-03-04T10:29:23;5.80;99.90
30648;DHT22;17683;53.360;9.736;2023-03-04T10:31:50;5.80;99.90
30648;DHT22;17683;53.360;9.736;2023-03-04T10:34:17;5.80;99.90
30648;DHT22;17683;53.360;9.736;2023-03-04T10:36:59;5.80;99.90
30648;DHT22;17683;53.360;9.736;2023-03-04T10:39:29;5.80;99.90
30648;DHT22;17683;53.360;9.736;2023-03-04T10:42:01;5.90;99.90
30648;DHT22;17683;53.360;9.736;2023-03-04T10:44:28;5.90;99.90
30648;DHT22;17683;53.360;9.736;2023-03-04T10:46:56;5.90;99.90
30648;DHT22;17683;53.360;9.736;2023-03-04T10:49:22;5.90;99.90
30648;DHT22;17683;53.360;9.736;2023-03-04T10:54:59;6.00;99.90
30648;DHT22;17683;53.360;9.736;2023-03-04T10:57:39;6.00;99.90
30648;DHT22;17683;53.360;9.736;2023-03-04T11:02:47;6.00;99.90
30648;DHT22;17683;53.360;9.736;2023-03-04T11:07:50;6.00;99.90
30648;DHT22;17683;53.360;9.736;2023-03-04T11:10:22;6.00;99.90
30648;DHT22;17683;53.360;9.736;2023-03-04T11:18:41;6.20;99.90
30648;DHT22;17683;53.360;9.736;2023-03-04T11:21:14;6.30;99.90
30648;DHT22;17683;53.360;9.736;2023-03-04T11:26:20;6.40;99.90
30648;DHT22;17683;53.360;9.736;2023-03-04T11:29:07;6.40;99.90
30648;DHT22;17683;53.360;9.736;2023-03-04T11:32:43;6.50;99.90
30648;DHT22;17683;53.360;9.736;2023-03-04T11:35:22;6.40;99.90
30648;DHT22;17683;53.360;9.736;2023-03-04T11:37:44;6.40;99.90
30648;DHT22;17683;53.360;9.736;2023-03-04T11:40:42;6.40;99.90
30648;DHT22;17683;53.360;9.736;2023-03-04T11:43:23;6.50;99.90
30648;DHT22;17683;53.360;9.736;2023-03-04T11:54:58;6.40;99.90
30648;DHT22;17683;53.360;9.736;2023-03-04T12:12:20;6.40;99.90
30648;DHT22;17683;53.360;9.736;2023-03-04T12:44:47;6.50;99.90
30648;DHT22;17683;53.360;9.736;2023-03-04T12:55:09;6.30;99.90
30648;DHT22;17683;53.360;9.736;2023-03-04T12:57:36;6.40;99.90
30648;DHT22;17683;53.360;9.736;2023-03-04T13:03:06;6.40;99.90
30648;DHT22;17683;53.360;9.736;2023-03-04T13:08:29;6.40;99.90
30648;DHT22;17683;53.360;9.736;2023-03-04T13:14:03;6.40;99.90
30648;DHT22;17683;53.360;9.736;2023-03-04T13:18:58;6.50;99.90
30648;DHT22;17683;53.360;9.736;2023-03-04T13:21:29;6.50;99.90
30648;DHT22;17683;53.360;9.736;2023-03-04T13:23:57;6.60;99.90
30648;DHT22;17683;53.360;9.736;2023-03-04T13:26:33;6.70;99.90
30648;DHT22;17683;53.360;9.736;2023-03-04T13:34:52;6.60;99.90
30648;DHT22;17683;53.360;9.736;2023-03-04T13:37:31;6.60;99.90
30648;DHT22;17683;53.360;9.736;2023-03-04T13:42:48;6.60;99.90
30648;DHT22;17683;53.360;9.736;2023-03-04T13:45:30;6.50;99.90
30648;DHT22;17683;53.360;9.736;2023-03-04T13:47:56;6.60;99.90
30648;DHT22;17683;53.360;9.736;2023-03-04T13:53:20;6.50;99.90
30648;DHT22;17683;53.360;9.736;2023-03-04T13:56:02;6.50;99.90
30648;DHT22;17683;53.360;9.736;2023-03-04T13:58:29;6.50;99.90
30648;DHT22;17683;53.360;9.736;2023-03-04T14:00:55;6.40;99.90
30648;DHT22;17683;53.360;9.736;2023-03-04T14:03:26;6.40;99.90
30648;DHT22;17683;53.360;9.736;2023-03-04T14:06:29;6.40;99.90
30648;DHT22;17683;53.360;9.736;2023-03-04T14:08:55;6.40;99.90
30648;DHT22;17683;53.360;9.736;2023-03-04T14:13:47;6.40;99.90
30648;DHT22;17683;53.360;9.736;2023-03-04T14:16:19;6.40;99.90
30648;DHT22;17683;53.360;9.736;2023-03-04T14:18:54;6.30;99.90
30648;DHT22;17683;53.360;9.736;2023-03-04T14:21:20;6.40;99.90
30648;DHT22;17683;53.360;9.736;2023-03-04T14:24:10;6.30;99.90
30648;DHT22;17683;53.360;9.736;2023-03-04T14:26:36;6.30;99.90
30648;DHT22;17683;53.360;9.736;2023-03-04T14:29:17;6.20;99.90
30648;DHT22;17683;53.360;9.736;2023-03-04T14:31:43;6.20;99.90
30648;DHT22;17683;53.360;9.736;2023-03-04T14:34:16;6.20;99.90
30648;DHT22;17683;53.360;9.736;2023-03-04T14:36:45;6.20;99.90
30648;DHT22;17683;53.360;9.736;2023-03-04T14:39:15;6.10;99.90
30648;DHT22;17683;53.360;9.736;2023-03-04T14:41:44;6.10;99.90
30648;DHT22;17683;53.360;9.736;2023-03-04T14:44:37;6.20;99.90
30648;DHT22;17683;53.360;9.736;2023-03-04T14:47:28;6.20;99.90
30648;DHT22;17683;53.360;9.736;2023-03-04T14:49:56;6.20;99.90
30648;DHT22;17683;53.360;9.736;2023-03-04T14:52:46;6.10;99.90
30648;DHT22;17683;53.360;9.736;2023-03-04T14:55:26;6.10;99.90
30648;DHT22;17683;53.360;9.736;2023-03-04T14:58:22;6.10;99.90
30648;DHT22;17683;53.360;9.736;2023-03-04T15:00:48;6.00;99.90
30648;DHT22;17683;53.360;9.736;2023-03-04T15:03:30;6.00;99.90
30648;DHT22;17683;53.360;9.736;2023-03-04T15:06:16;6.00;99.90
30648;DHT22;17683;53.360;9.736;2023-03-04T15:08:43;6.00;99.90
30648;DHT22;17683;53.360;9.736;2023-03-04T15:11:20;6.00;99.90
30648;DHT22;17683;53.360;9.736;2023-03-04T15:13:49;6.00;99.90
30648;DHT22;17683;53.360;9.736;2023-03-04T15:16:17;6.00;99.90
30648;DHT22;17683;53.360;9.736;2023-03-04T15:21:33;5.90;99.90
30648;DHT22;17683;53.360;9.736;2023-03-04T15:24:02;5.90;99.90
30648;DHT22;17683;53.360;9.736;2023-03-04T15:26:30;5.90;99.90
30648;DHT22;17683;53.360;9.736;2023-03-04T15:28:57;5.80;99.90
30648;DHT22;17683;53.360;9.736;2023-03-04T15:31:23;5.80;99.90
30648;DHT22;17683;53.360;9.736;2023-03-04T15:33:52;5.80;99.90
30648;DHT22;17683;53.360;9.736;2023-03-04T15:36:20;5.70;99.90
30648;DHT22;17683;53.360;9.736;2023-03-04T15:38:49;5.80;99.90
30648;DHT22;17683;53.360;9.736;2023-03-04T15:41:21;5.70;99.90
30648;DHT22;17683;53.360;9.736;2023-03-04T15:43:48;5.70;99.90
30648;DHT22;17683;53.360;9.736;2023-03-04T15:46:14;5.70;99.90
30648;DHT22;17683;53.360;9.736;2023-03-04T15:48:39;5.70;99.90
30648;DHT22;17683;53.360;9.736;2023-03-04T15:51:18;5.60;99.90
30648;DHT22;17683;53.360;9.736;2023-03-04T15:53:50;5.60;99.90
30648;DHT22;17683;53.360;9.736;2023-03-04T15:56:25;5.60;99.90
30648;DHT22;17683;53.360;9.736;2023-03-04T15:58:54;5.60;99.90
30648;DHT22;17683;53.360;9.736;2023-03-04T16:01:21;5.60;99.90
30648;DHT22;17683;53.360;9.736;2023-03-04T16:03:48;5.60;99.90
30648;DHT22;17683;53.360;9.736;2023-03-04T16:06:15;5.60;99.90
30648;DHT22;17683;53.360;9.736;2023-03-04T16:08:43;5.60;99.90
30648;DHT22;17683;53.360;9.736;2023-03-04T16:11:16;5.60;99.90
30648;DHT22;17683;53.360;9.736;2023-03-04T16:13:43;5.50;99.90
30648;DHT22;17683;53.360;9.736;2023-03-04T16:16:10;5.50;99.90
30648;DHT22;17683;53.360;9.736;2023-03-04T16:18:36;5.50;99.90
30648;DHT22;17683;53.360;9.736;2023-03-04T16:21:03;5.50;99.90
30648;DHT22;17683;53.360;9.736;2023-03-04T16:23:31;5.50;99.90
30648;DHT22;17683;53.360;9.736;2023-03-04T16:26:02;5.40;99.90
30648;DHT22;17683;53.360;9.736;2023-03-04T16:28:29;5.40;99.90
30648;DHT22;17683;53.360;9.736;2023-03-04T16:30:54;5.40;99.90
30648;DHT22;17683;53.360;9.736;2023-03-04T16:33:20;5.40;99.90
30648;DHT22;17683;53.360;9.736;2023-03-04T16:35:46;5.40;99.90
30648;DHT22;17683;53.360;9.736;2023-03-04T16:38:22;5.30;99.90
30648;DHT22;17683;53.360;9.736;2023-03-04T16:40:50;5.30;99.90
30648;DHT22;17683;53.360;9.736;2023-03-04T16:43:16;5.30;99.90
30648;DHT22;17683;53.360;9.736;2023-03-04T16:45:42;5.30;99.90
30648;DHT22;17683;53.360;9.736;2023-03-04T16:48:08;5.20;99.90
30648;DHT22;17683;53.360;9.736;2023-03-04T16:50:35;5.20;99.90
30648;DHT22;17683;53.360;9.736;2023-03-04T16:53:02;5.10;99.90
30648;DHT22;17683;53.360;9.736;2023-03-04T16:55:29;5.10;99.90
30648;DHT22;17683;53.360;9.736;2023-03-04T16:57:56;5.10;99.90
30648;DHT22;17683;53.360;9.736;2023-03-04T17:00:26;5.20;99.90
30648;DHT22;17683;53.360;9.736;2023-03-04T17:02:58;5.10;99.90
30648;DHT22;17683;53.360;9.736;2023-03-04T17:05:28;5.10;99.90
30648;DHT22;17683;53.360;9.736;2023-03-04T17:07:55;5.00;99.90
30648;DHT22;17683;53.360;9.736;2023-03-04T17:10:21;5.00;99.90
30648;DHT22;17683;53.360;9.736;2023-03-04T17:12:47;5.00;99.90
30648;DHT22;17683;53.360;9.736;2023-03-04T17:15:15;5.00;99.90
30648;DHT22;17683;53.360;9.736;2023-03-04T17:17:41;4.90;99.90
30648;DHT22;17683;53.360;9.736;2023-03-04T17:20:10;4.90;99.90
30648;DHT22;17683;53.360;9.736;2023-03-04T17:22:36;4.90;99.90
30648;DHT22;17683;53.360;9.736;2023-03-04T17:25:02;4.80;99.90
30648;DHT22;17683;53.360;9.736;2023-03-04T17:27:29;4.80;99.90
30648;DHT22;17683;53.360;9.736;2023-03-04T17:29:54;4.80;99.90
30648;DHT22;17683;53.360;9.736;2023-03-04T17:32:21;4.80;99.90
30648;DHT22;17683;53.360;9.736;2023-03-04T17:34:47;4.80;99.90
30648;DHT22;17683;53.360;9.736;2023-03-04T17:37:13;4.80;99.90
30648;DHT22;17683;53.360;9.736;2023-03-04T17:39:39;4.70;99.90
30648;DHT22;17683;53.360;9.736;2023-03-04T17:42:05;4.70;99.90
30648;DHT22;17683;53.360;9.736;2023-03-04T17:44:31;4.70;99.90
30648;DHT22;17683;53.360;9.736;2023-03-04T17:46:57;4.70;99.90
30648;DHT22;17683;53.360;9.736;2023-03-04T17:49:23;4.70;99.90
30648;DHT22;17683;53.360;9.736;2023-03-04T17:51:50;4.70;99.90
30648;DHT22;17683;53.360;9.736;2023-03-04T17:54:17;4.70;99.90
30648;DHT22;17683;53.360;9.736;2023-03-04T17:56:43;4.70;99.90
30648;DHT22;17683;53.360;9.736;2023-03-04T17:59:13;4.70;99.90
30648;DHT22;17683;53.360;9.736;2023-03-04T18:01:39;4.60;99.90